Time;durP1;ratioP1;P1;durP2;ratioP2;P2;SDS_P1;SDS_P2;PMS_P1;PMS_P2;Temp;Humidity;BMP_temperature;BMP_pressure;BME280_temperature;BME280_humidity;BME280_pressure;Samples;Min_cycle;Max_cycle;Signal;HPM_P1;HPM_P2
2021/06/21 00:00:10;;;;;;;11.13;6.97;;;;;;;17.64;79.98;100672.22;5077709;28;20062;-56
2021/06/21 00:02:37;;;;;;;12.63;7.00;;;;;;;17.55;79.95;100666.00;5094126;28;20387;-56
2021/06/21 00:05:06;;;;;;;11.93;6.53;;;;;;;17.54;80.14;100674.94;5094145;28;20047;-56
2021/06/21 00:07:33;;;;;;;9.38;6.53;;;;;;;17.53;80.53;100671.47;5108487;28;20055;-55
2021/06/21 00:10:00;;;;;;;10.10;6.90;;;;;;;17.57;81.27;100671.97;5109181;28;20094;-53
2021/06/21 00:12:26;;;;;;;11.30;6.85;;;;;;;17.64;81.50;100678.38;5075256;28;20675;-54
2021/06/21 00:14:53;;;;;;;11.77;7.00;;;;;;;17.59;81.46;100680.66;5094435;28;20052;-55
2021/06/21 00:17:20;;;;;;;11.40;6.63;;;;;;;17.51;81.62;100686.72;5091759;28;20052;-56
2021/06/21 00:19:47;;;;;;;11.95;7.32;;;;;;;17.49;81.69;100695.81;5109032;28;20056;-52
2021/06/21 00:22:18;;;;;;;10.35;7.40;;;;;;;17.49;81.17;100704.66;5109575;28;20047;-53
2021/06/21 00:24:45;;;;;;;11.50;7.30;;;;;;;17.37;82.00;100697.84;5108902;28;20035;-54
2021/06/21 00:27:13;;;;;;;11.75;8.20;;;;;;;17.37;82.19;100701.34;5112099;28;20126;-54
2021/06/21 00:29:41;;;;;;;11.13;7.90;;;;;;;17.38;81.40;100705.69;5091993;28;20051;-54
2021/06/21 00:32:08;;;;;;;11.18;7.50;;;;;;;17.46;81.10;100698.78;5111072;28;20035;-54
2021/06/21 00:34:35;;;;;;;15.65;8.10;;;;;;;17.36;80.53;100702.31;5115831;28;20048;-53
2021/06/21 00:37:02;;;;;;;12.05;7.88;;;;;;;17.21;81.70;100707.28;5080945;28;20055;-56
2021/06/21 00:39:29;;;;;;;14.07;7.25;;;;;;;17.26;81.91;100700.69;5096864;28;20043;-57
2021/06/21 00:41:55;;;;;;;10.40;7.60;;;;;;;17.14;81.49;100702.69;5112503;28;20055;-56
2021/06/21 00:44:22;;;;;;;11.65;8.02;;;;;;;17.12;81.99;100707.31;5114634;28;20051;-55
2021/06/21 00:46:49;;;;;;;15.20;8.48;;;;;;;16.90;82.56;100696.91;5115606;28;20058;-57
2021/06/21 00:49:16;;;;;;;14.13;8.02;;;;;;;16.79;83.37;100690.91;5115423;28;20075;-54
2021/06/21 00:51:43;;;;;;;14.80;9.43;;;;;;;16.62;83.23;100682.72;5097068;28;20052;-54
2021/06/21 00:54:10;;;;;;;16.33;9.18;;;;;;;16.53;83.48;100672.94;5115701;28;20135;-55
2021/06/21 00:56:37;;;;;;;12.88;8.88;;;;;;;16.58;84.04;100659.25;5113324;28;20415;-54
2021/06/21 00:59:04;;;;;;;14.13;9.48;;;;;;;16.39;84.44;100656.50;5112256;28;20054;-54
2021/06/21 01:01:31;;;;;;;14.52;8.98;;;;;;;16.31;84.36;100653.72;5111738;28;20062;-54
2021/06/21 01:03:59;;;;;;;16.65;9.88;;;;;;;16.27;84.71;100651.50;5111946;28;20563;-53
2021/06/21 01:06:27;;;;;;;14.48;8.85;;;;;;;16.17;84.23;100651.47;5112403;28;20789;-53
2021/06/21 01:08:54;;;;;;;13.35;9.20;;;;;;;16.09;85.18;100651.34;5093908;28;20487;-54
2021/06/21 01:11:27;;;;;;;15.68;9.10;;;;;;;16.09;84.52;100651.34;5113865;28;20055;-55
2021/06/21 01:13:54;;;;;;;14.90;8.80;;;;;;;15.96;84.71;100656.94;5115242;28;20571;-53
2021/06/21 01:16:35;;;;;;;16.58;9.02;;;;;;;15.84;84.58;100659.75;5115033;28;20051;-54
2021/06/21 01:19:11;;;;;;;13.23;8.18;;;;;;;15.84;85.60;100656.25;5095233;28;20092;-55
2021/06/21 01:21:43;;;;;;;14.23;9.73;;;;;;;15.78;86.07;100648.81;5112216;28;20415;-54
2021/06/21 01:24:29;;;;;;;15.23;9.35;;;;;;;15.80;86.57;100661.00;5114571;28;20423;-56
2021/06/21 01:27:08;;;;;;;14.75;8.57;;;;;;;15.71;86.35;100665.28;5114947;28;20044;-54
2021/06/21 01:30:03;;;;;;;14.07;8.50;;;;;;;15.67;86.14;100671.81;5095493;28;20058;-56
2021/06/21 01:32:43;;;;;;;12.57;8.10;;;;;;;15.67;86.27;100676.28;5111497;28;20617;-54
2021/06/21 01:35:19;;;;;;;14.13;7.93;;;;;;;15.56;87.10;100677.25;5114554;28;20067;-56
2021/06/21 01:37:48;;;;;;;13.60;8.43;;;;;;;15.61;86.55;100672.38;5113674;28;20543;-56
2021/06/21 01:40:17;;;;;;;14.40;9.30;;;;;;;15.58;86.84;100666.50;5111974;28;20396;-55
2021/06/21 01:42:49;;;;;;;13.18;9.13;;;;;;;15.59;86.99;100670.84;5094462;28;20047;-56
2021/06/21 01:45:17;;;;;;;14.02;8.45;;;;;;;15.48;87.10;100666.50;5096628;28;20437;-55
2021/06/21 01:47:49;;;;;;;11.35;8.43;;;;;;;15.58;87.55;100659.38;5096340;28;20075;-57
2021/06/21 01:50:19;;;;;;;10.55;7.68;;;;;;;15.58;87.20;100661.22;5114415;28;20044;-55
2021/06/21 01:52:49;;;;;;;14.00;7.82;;;;;;;15.45;87.07;100667.59;5094537;28;20562;-57
2021/06/21 01:55:19;;;;;;;12.90;7.93;;;;;;;15.34;86.79;100663.25;5093560;28;20050;-55
2021/06/21 01:57:48;;;;;;;10.57;7.22;;;;;;;15.37;87.26;100664.78;5076057;28;20048;-54
2021/06/21 02:00:15;;;;;;;12.85;7.78;;;;;;;15.32;87.67;100667.81;5095781;28;20571;-56
2021/06/21 02:02:42;;;;;;;10.25;6.63;;;;;;;15.33;86.68;100666.03;5096051;28;20054;-54
2021/06/21 02:05:13;;;;;;;10.80;6.28;;;;;;;15.35;87.05;100662.28;5094783;28;20039;-54
2021/06/21 02:07:41;;;;;;;13.07;7.30;;;;;;;15.43;87.38;100656.28;5076434;28;20109;-54
2021/06/21 02:10:09;;;;;;;11.88;6.90;;;;;;;15.26;87.17;100656.97;5059746;28;20048;-53
2021/06/21 02:12:36;;;;;;;11.18;7.18;;;;;;;15.30;87.83;100659.19;5092283;28;20039;-55
2021/06/21 02:15:04;;;;;;;11.32;6.60;;;;;;;15.32;86.75;100661.69;5113013;28;20503;-56
2021/06/21 02:17:32;;;;;;;9.88;5.68;;;;;;;15.18;86.93;100660.28;5110914;28;20565;-55
2021/06/21 02:19:59;;;;;;;8.90;5.93;;;;;;;15.21;87.12;100650.25;5093738;28;20092;-55
2021/06/21 02:22:28;;;;;;;9.45;6.18;;;;;;;15.24;87.18;100645.66;5095993;28;20044;-55
2021/06/21 02:24:58;;;;;;;10.40;5.45;;;;;;;15.15;87.51;100639.38;5093208;28;20050;-55
2021/06/21 02:27:25;;;;;;;9.05;5.57;;;;;;;15.06;88.58;100633.03;5092462;28;20039;-57
2021/06/21 02:29:54;;;;;;;9.50;5.88;;;;;;;15.01;87.70;100619.38;5113498;28;20548;-57
2021/06/21 02:32:21;;;;;;;8.15;5.25;;;;;;;15.12;87.41;100623.72;5111379;28;20465;-56
2021/06/21 02:34:49;;;;;;;8.80;5.00;;;;;;;15.15;87.14;100621.66;5109861;28;20043;-56
2021/06/21 02:37:16;;;;;;;8.18;4.97;;;;;;;14.90;87.31;100633.53;5091972;28;20058;-55
2021/06/21 02:39:44;;;;;;;13.85;4.90;;;;;;;14.95;86.68;100636.63;5110684;28;20495;-56
2021/06/21 02:42:11;;;;;;;7.80;4.80;;;;;;;14.81;87.19;100648.41;5112605;28;20048;-55
2021/06/21 02:44:38;;;;;;;8.95;5.00;;;;;;;14.93;87.42;100649.19;5109676;28;20047;-56
2021/06/21 02:47:05;;;;;;;8.77;4.80;;;;;;;14.77;87.51;100646.19;5092987;28;20036;-54
2021/06/21 02:49:34;;;;;;;8.80;4.45;;;;;;;14.60;88.00;100651.09;5092613;28;20048;-55
2021/06/21 02:52:24;;;;;;;8.20;3.92;;;;;;;14.64;87.64;100649.88;5109891;28;20043;-56
2021/06/21 02:55:06;;;;;;;7.85;4.03;;;;;;;14.62;88.13;100659.72;5094300;28;20067;-57
2021/06/21 02:57:48;;;;;;;6.90;3.90;;;;;;;14.48;87.77;100645.00;5111977;28;20062;-56
2021/06/21 03:00:15;;;;;;;7.25;3.85;;;;;;;14.51;88.42;100638.63;5092397;28;20051;-56
2021/06/21 03:02:43;;;;;;;7.93;4.55;;;;;;;14.62;89.38;100641.19;5113044;28;20047;-55
2021/06/21 03:05:11;;;;;;;7.03;3.55;;;;;;;14.62;88.37;100643.84;5094965;28;20043;-56
2021/06/21 03:07:39;;;;;;;6.22;3.63;;;;;;;14.54;87.74;100659.53;5112905;28;20044;-56
2021/06/21 03:10:06;;;;;;;5.88;3.40;;;;;;;14.59;88.60;100654.69;5092822;28;20058;-56
2021/06/21 03:12:33;;;;;;;6.43;3.40;;;;;;;14.54;88.78;100646.28;5091769;28;20039;-55
2021/06/21 03:15:01;;;;;;;6.93;3.53;;;;;;;14.60;88.41;100645.78;5090951;28;20043;-57
2021/06/21 03:17:28;;;;;;;7.80;3.72;;;;;;;14.69;88.24;100636.25;5091471;28;20062;-57
2021/06/21 03:19:55;;;;;;;6.47;3.25;;;;;;;14.73;87.35;100637.66;5110390;28;20380;-58
2021/06/21 03:22:25;;;;;;;5.18;3.10;;;;;;;14.67;87.25;100628.44;5093559;28;20058;-56
2021/06/21 03:24:54;;;;;;;6.38;3.15;;;;;;;14.52;87.85;100632.38;5091891;28;20054;-56
2021/06/21 03:27:41;;;;;;;6.03;3.20;;;;;;;14.45;88.41;100633.84;5091330;28;20047;-55
2021/06/21 03:30:12;;;;;;;6.53;3.17;;;;;;;14.45;88.32;100637.34;5091034;28;20052;-57
2021/06/21 03:32:41;;;;;;;6.63;3.45;;;;;;;14.52;87.83;100635.03;5109513;28;20047;-57
2021/06/21 03:35:11;;;;;;;7.10;3.30;;;;;;;14.39;87.66;100637.84;5108466;28;20073;-57
2021/06/21 03:37:39;;;;;;;9.02;3.10;;;;;;;14.28;88.04;100641.41;5109849;28;20047;-58
2021/06/21 03:40:07;;;;;;;6.15;3.03;;;;;;;14.22;87.78;100641.06;5091417;28;20047;-57
2021/06/21 03:42:35;;;;;;;5.25;2.97;;;;;;;14.15;87.69;100631.03;5095002;28;20051;-57
2021/06/21 03:45:02;;;;;;;7.03;3.10;;;;;;;14.03;88.83;100626.75;5112737;28;20113;-57
2021/06/21 03:47:29;;;;;;;6.53;3.17;;;;;;;13.95;89.06;100629.22;5110619;28;20070;-57
2021/06/21 03:49:56;;;;;;;7.65;3.88;;;;;;;13.99;88.50;100623.53;5090885;28;20051;-56
2021/06/21 03:52:22;;;;;;;5.93;3.10;;;;;;;14.03;88.78;100618.81;5111977;28;20454;-56
2021/06/21 03:55:05;;;;;;;6.13;3.25;;;;;;;13.97;88.79;100624.63;5109388;28;20087;-56
2021/06/21 03:57:39;;;;;;;4.70;2.65;;;;;;;13.97;88.57;100629.91;5109835;28;20041;-57
2021/06/21 04:00:10;;;;;;;5.35;2.78;;;;;;;13.91;88.42;100622.50;5112280;28;20035;-57
2021/06/21 04:02:37;;;;;;;7.05;3.40;;;;;;;13.90;89.07;100616.34;5094380;28;20130;-56
2021/06/21 04:05:04;;;;;;;6.18;3.10;;;;;;;13.90;89.40;100613.72;5112380;28;20061;-56
2021/06/21 04:07:32;;;;;;;5.13;2.55;;;;;;;13.90;89.31;100619.00;5116289;28;20615;-55
2021/06/21 04:09:59;;;;;;;6.13;2.75;;;;;;;13.88;89.44;100614.78;5098589;28;20048;-54
2021/06/21 04:12:26;;;;;;;5.88;2.80;;;;;;;13.86;89.76;100618.44;5116332;28;20051;-58
2021/06/21 04:14:53;;;;;;;7.50;2.75;;;;;;;13.91;89.53;100615.38;5113975;28;20051;-56
2021/06/21 04:17:19;;;;;;;6.30;2.50;;;;;;;13.73;89.68;100612.47;5112412;28;20468;-57
2021/06/21 04:19:46;;;;;;;4.25;2.20;;;;;;;13.82;89.56;100610.84;5112710;28;20647;-57
2021/06/21 04:22:13;;;;;;;5.22;2.67;;;;;;;13.77;90.03;100605.97;5095116;28;20055;-57
2021/06/21 04:24:40;;;;;;;6.53;2.30;;;;;;;13.79;90.01;100600.56;5095346;28;20094;-56
2021/06/21 04:27:07;;;;;;;6.03;2.75;;;;;;;13.92;89.96;100605.63;5113956;28;20051;-50
2021/06/21 04:29:34;;;;;;;4.88;2.30;;;;;;;13.80;88.98;100610.16;5115918;28;20089;-52
2021/06/21 04:32:01;;;;;;;4.63;2.05;;;;;;;13.81;90.06;100611.81;5097667;28;20108;-54
2021/06/21 04:34:28;;;;;;;4.80;2.47;;;;;;;13.70;89.35;100610.06;5094688;28;20051;-56
2021/06/21 04:36:55;;;;;;;5.10;2.15;;;;;;;13.72;90.21;100602.84;5112563;28;20298;-57
2021/06/21 04:39:22;;;;;;;3.67;2.00;;;;;;;13.72;90.58;100605.50;5112624;28;20056;-57
2021/06/21 04:41:49;;;;;;;7.57;2.65;;;;;;;13.76;90.65;100593.72;5093773;28;20047;-57
2021/06/21 04:44:16;;;;;;;5.53;2.65;;;;;;;13.74;90.23;100605.38;5094502;28;20440;-55
2021/06/21 04:46:43;;;;;;;4.97;2.35;;;;;;;13.64;90.25;100595.53;5114510;28;20048;-56
2021/06/21 04:49:13;;;;;;;4.32;1.98;;;;;;;13.68;90.41;100589.03;5115047;28;20051;-55
2021/06/21 04:51:41;;;;;;;5.85;2.40;;;;;;;13.66;90.44;100592.78;5079637;28;20138;-58
2021/06/21 04:54:09;;;;;;;4.95;2.30;;;;;;;13.68;89.93;100588.22;5112730;28;20059;-58
2021/06/21 04:56:38;;;;;;;5.22;2.40;;;;;;;13.72;90.22;100584.34;5114655;28;20067;-57
2021/06/21 04:59:05;;;;;;;3.67;2.00;;;;;;;13.85;89.44;100592.09;5115128;28;20054;-57
2021/06/21 05:01:33;;;;;;;5.15;2.00;;;;;;;13.69;89.39;100588.09;5097365;28;20051;-56
2021/06/21 05:04:01;;;;;;;3.67;2.00;;;;;;;13.69;89.88;100588.09;5097601;28;20361;-55
2021/06/21 05:06:28;;;;;;;4.75;2.38;;;;;;;13.83;90.29;100589.59;5096774;28;20089;-57
2021/06/21 05:08:55;;;;;;;3.80;2.00;;;;;;;13.85;89.81;100589.44;5096895;28;20104;-56
2021/06/21 05:11:22;;;;;;;4.00;1.92;;;;;;;13.83;89.40;100588.75;5093500;28;20066;-54
2021/06/21 05:13:49;;;;;;;3.38;1.58;;;;;;;13.83;89.10;100586.94;5111737;28;20047;-56
2021/06/21 05:16:16;;;;;;;3.22;1.55;;;;;;;13.86;88.80;100588.50;5110691;28;20109;-55
2021/06/21 05:18:43;;;;;;;2.83;1.67;;;;;;;13.86;89.20;100604.34;5111554;28;20051;-57
2021/06/21 05:21:10;;;;;;;3.53;1.67;;;;;;;13.82;89.56;100600.28;5076801;28;20047;-55
2021/06/21 05:23:37;;;;;;;2.83;1.55;;;;;;;13.84;89.46;100606.31;5094301;28;20503;-57
2021/06/21 05:26:04;;;;;;;3.63;1.77;;;;;;;13.78;89.55;100604.97;5096103;28;20055;-57
2021/06/21 05:28:31;;;;;;;3.88;1.70;;;;;;;13.68;90.11;100612.81;5114883;28;20051;-58
2021/06/21 05:30:58;;;;;;;4.50;1.70;;;;;;;13.69;89.96;100619.78;5080010;28;20067;-57
2021/06/21 05:33:25;;;;;;;3.55;1.63;;;;;;;13.69;90.41;100609.22;5114918;28;20450;-57
2021/06/21 05:35:51;;;;;;;3.28;1.70;;;;;;;13.82;89.94;100608.22;5114793;28;20457;-56
2021/06/21 05:38:19;;;;;;;3.40;1.45;;;;;;;13.74;90.07;100600.91;5077963;28;20085;-56
2021/06/21 05:40:45;;;;;;;2.70;1.60;;;;;;;13.77;89.60;100603.31;5093691;28;20043;-55
2021/06/21 05:43:12;;;;;;;3.50;1.73;;;;;;;13.76;89.81;100599.00;5111585;28;20112;-56
2021/06/21 05:45:39;;;;;;;2.22;1.25;;;;;;;13.65;89.66;100594.59;5093090;28;20130;-56
2021/06/21 05:48:07;;;;;;;2.78;1.50;;;;;;;13.76;90.10;100603.44;5110847;28;20060;-57
2021/06/21 05:50:34;;;;;;;2.38;1.25;;;;;;;13.79;89.63;100598.72;5092508;28;20101;-57
2021/06/21 05:53:00;;;;;;;3.75;1.27;;;;;;;13.84;89.47;100601.00;5111897;28;20051;-55
2021/06/21 05:55:27;;;;;;;2.95;1.30;;;;;;;13.77;89.19;100607.75;5093590;28;20044;-54
2021/06/21 05:57:54;;;;;;;2.90;1.35;;;;;;;13.75;89.73;100617.63;5114287;28;20055;-56
2021/06/21 06:00:22;;;;;;;3.25;1.63;;;;;;;13.73;89.35;100606.31;5095977;28;20040;-57
2021/06/21 06:02:49;;;;;;;2.45;1.45;;;;;;;13.79;90.25;100614.59;5114154;28;20055;-56
2021/06/21 06:05:17;;;;;;;3.92;1.38;;;;;;;13.85;89.55;100622.03;5114099;28;20381;-56
2021/06/21 06:07:45;;;;;;;3.85;1.40;;;;;;;13.88;89.30;100618.28;5096202;28;20047;-56
2021/06/21 06:10:12;;;;;;;3.42;1.40;;;;;;;13.84;89.52;100622.16;5113986;28;20112;-56
2021/06/21 06:12:39;;;;;;;3.20;1.40;;;;;;;13.85;89.36;100614.09;5113975;28;20055;-55
2021/06/21 06:15:07;;;;;;;2.70;1.55;;;;;;;13.86;89.72;100614.94;5096025;28;20047;-56
2021/06/21 06:17:34;;;;;;;4.90;1.90;;;;;;;13.84;89.66;100616.88;5114194;28;20052;-57
2021/06/21 06:20:00;;;;;;;4.82;1.73;;;;;;;13.86;89.42;100620.22;5111097;28;20416;-56
2021/06/21 06:22:27;;;;;;;2.58;1.45;;;;;;;13.84;89.81;100622.16;5111371;28;20036;-56
2021/06/21 06:24:54;;;;;;;2.88;1.63;;;;;;;13.73;89.89;100619.53;5093088;28;20056;-57
2021/06/21 06:27:21;;;;;;;2.65;1.50;;;;;;;13.73;90.67;100622.19;5110359;28;20063;-55
2021/06/21 06:29:47;;;;;;;4.18;1.73;;;;;;;13.78;90.22;100620.84;5110948;28;20039;-55
2021/06/21 06:32:14;;;;;;;3.00;1.50;;;;;;;13.81;89.63;100620.59;5111052;28;20066;-56
2021/06/21 06:34:41;;;;;;;2.55;1.52;;;;;;;13.82;89.78;100626.72;5110184;28;20047;-56
2021/06/21 06:37:10;;;;;;;3.08;1.52;;;;;;;13.77;89.66;100632.41;5078014;28;20043;-56
2021/06/21 06:39:37;;;;;;;2.72;1.45;;;;;;;13.73;90.09;100632.75;5076751;28;20047;-56
2021/06/21 06:42:05;;;;;;;2.75;1.67;;;;;;;13.76;90.12;100633.34;5109862;28;20560;-54
2021/06/21 06:44:32;;;;;;;1.80;1.30;;;;;;;13.78;89.67;100634.03;5110365;28;20506;-57
2021/06/21 06:46:58;;;;;;;3.45;1.38;;;;;;;13.82;90.03;100629.34;5111939;28;20183;-57
2021/06/21 06:49:25;;;;;;;1.48;0.90;;;;;;;13.91;90.13;100635.72;5111952;28;20419;-58
2021/06/21 06:51:54;;;;;;;2.40;1.30;;;;;;;13.85;89.88;100639.66;5113175;28;20050;-58
2021/06/21 06:54:44;;;;;;;3.00;1.20;;;;;;;13.84;90.54;100640.66;5112407;28;20491;-54
2021/06/21 06:57:11;;;;;;;4.35;1.35;;;;;;;13.92;90.28;100635.59;5109992;28;20066;-55
2021/06/21 06:59:39;;;;;;;2.28;1.13;;;;;;;13.96;89.89;100644.06;5091828;28;20097;-55
2021/06/21 07:02:12;;;;;;;2.53;1.40;;;;;;;13.97;90.15;100645.75;5074267;28;20043;-56
2021/06/21 07:04:40;;;;;;;3.22;1.42;;;;;;;14.02;89.83;100652.34;5109968;28;20400;-56
2021/06/21 07:07:06;;;;;;;2.40;1.20;;;;;;;13.91;90.09;100647.13;5113120;28;20088;-56
2021/06/21 07:09:34;;;;;;;1.67;0.90;;;;;;;13.97;89.59;100657.16;5112012;28;20048;-55
2021/06/21 07:12:02;;;;;;;1.45;1.05;;;;;;;13.95;89.79;100650.34;5109449;28;20109;-56
2021/06/21 07:14:29;;;;;;;2.05;0.95;;;;;;;14.03;89.67;100653.19;5091547;28;20044;-57
2021/06/21 07:16:56;;;;;;;1.92;1.10;;;;;;;13.94;89.35;100649.50;5093886;28;20443;-56
2021/06/21 07:19:22;;;;;;;2.75;1.00;;;;;;;13.91;89.87;100647.13;5110071;28;20085;-54
2021/06/21 07:21:50;;;;;;;2.20;1.10;;;;;;;13.93;90.08;100652.28;5091707;28;20541;-57
2021/06/21 07:24:17;;;;;;;1.40;0.90;;;;;;;14.01;90.38;100649.84;5111464;28;20051;-55
2021/06/21 07:26:45;;;;;;;1.45;0.80;;;;;;;14.01;90.01;100650.66;5094678;28;20048;-54
2021/06/21 07:29:12;;;;;;;0.98;0.77;;;;;;;14.01;89.67;100666.53;5112609;28;20047;-56
2021/06/21 07:31:39;;;;;;;1.63;0.90;;;;;;;13.93;89.49;100661.03;5112740;28;20046;-57
2021/06/21 07:34:06;;;;;;;1.38;0.90;;;;;;;14.05;89.72;100661.81;5094500;28;20063;-55
2021/06/21 07:36:34;;;;;;;1.17;0.80;;;;;;;14.09;89.67;100651.84;5094596;28;20052;-56
2021/06/21 07:39:01;;;;;;;1.85;1.30;;;;;;;14.02;89.90;100655.00;5112731;28;20046;-56
2021/06/21 07:41:27;;;;;;;1.48;1.05;;;;;;;14.10;89.66;100649.06;5116560;28;20148;-56
2021/06/21 07:43:55;;;;;;;1.60;1.00;;;;;;;14.05;89.48;100653.91;5116654;28;20056;-55
2021/06/21 07:46:22;;;;;;;1.63;1.00;;;;;;;14.11;89.07;100655.19;5113176;28;20036;-56
2021/06/21 07:48:49;;;;;;;2.47;1.25;;;;;;;13.99;89.47;100654.41;5094820;28;20067;-56
2021/06/21 07:51:16;;;;;;;1.92;1.20;;;;;;;14.03;89.61;100664.59;5097107;28;20047;-57
2021/06/21 07:53:43;;;;;;;1.30;1.02;;;;;;;14.07;90.07;100661.69;5114852;28;20046;-57
2021/06/21 07:56:13;;;;;;;2.67;1.20;;;;;;;14.10;90.10;100669.41;5078552;28;20495;-57
2021/06/21 07:58:41;;;;;;;2.15;1.52;;;;;;;14.16;89.52;100679.44;5113709;28;20055;-57
2021/06/21 08:01:12;;;;;;;1.88;1.30;;;;;;;14.14;89.78;100676.13;5112650;28;20077;-58
2021/06/21 08:03:40;;;;;;;1.50;1.10;;;;;;;14.16;89.57;100682.91;5096508;28;20065;-57
2021/06/21 08:06:10;;;;;;;2.38;1.30;;;;;;;14.15;89.11;100685.69;5065429;28;20070;-58
2021/06/21 08:08:41;;;;;;;1.38;1.13;;;;;;;14.13;89.79;100679.72;5116555;28;20050;-57
2021/06/21 08:11:12;;;;;;;2.42;1.40;;;;;;;14.17;89.18;100687.25;5098505;28;20043;-57
2021/06/21 08:13:39;;;;;;;2.53;1.38;;;;;;;14.11;89.39;100689.56;5081524;28;20517;-57
2021/06/21 08:16:06;;;;;;;1.95;1.00;;;;;;;14.22;88.99;100694.81;5112688;28;20100;-57
2021/06/21 08:18:33;;;;;;;1.33;1.05;;;;;;;14.14;88.80;100697.25;5112983;28;20576;-57
2021/06/21 08:21:01;;;;;;;2.10;1.30;;;;;;;14.23;89.68;100695.66;5112592;28;20051;-56
2021/06/21 08:23:30;;;;;;;2.03;1.20;;;;;;;14.17;89.09;100694.34;5095339;28;20058;-57
2021/06/21 08:25:57;;;;;;;2.25;1.55;;;;;;;14.17;89.41;100694.34;5116359;28;20051;-57
2021/06/21 08:28:23;;;;;;;2.72;1.33;;;;;;;14.12;89.52;100693.91;5079715;28;20047;-56
2021/06/21 08:30:50;;;;;;;2.67;1.30;;;;;;;14.22;88.71;100689.53;5094059;28;20434;-56
2021/06/21 08:33:17;;;;;;;1.60;1.10;;;;;;;14.25;90.14;100697.22;5113613;28;20048;-56
2021/06/21 08:35:44;;;;;;;3.00;1.30;;;;;;;14.19;89.92;100695.06;5113350;28;20043;-56
2021/06/21 08:38:11;;;;;;;2.97;1.42;;;;;;;14.19;89.79;100692.41;5113075;28;20105;-56
2021/06/21 08:40:38;;;;;;;4.72;1.80;;;;;;;14.25;89.87;100699.84;5111952;28;20071;-57
2021/06/21 08:43:05;;;;;;;2.80;1.42;;;;;;;14.29;90.36;100695.97;5095644;28;20100;-56
2021/06/21 08:45:34;;;;;;;2.97;1.73;;;;;;;14.23;89.91;100714.16;5113819;28;20066;-56
2021/06/21 08:48:01;;;;;;;3.33;1.55;;;;;;;14.22;89.26;100715.97;5112058;28;20105;-55
2021/06/21 08:50:28;;;;;;;3.80;1.50;;;;;;;14.31;90.39;100715.19;5114759;28;20042;-57
2021/06/21 08:52:56;;;;;;;2.65;1.35;;;;;;;14.40;89.22;100718.91;5114821;28;20051;-56
2021/06/21 08:55:23;;;;;;;3.42;1.60;;;;;;;14.34;89.89;100735.28;5115499;28;20392;-56
2021/06/21 08:57:49;;;;;;;2.10;1.50;;;;;;;14.30;89.43;100737.34;5115359;28;20054;-56
2021/06/21 09:00:18;;;;;;;4.55;1.60;;;;;;;14.27;88.82;100750.81;5080454;28;20088;-57
2021/06/21 09:02:50;;;;;;;2.72;1.55;;;;;;;14.34;89.44;100757.28;5094469;28;20524;-57
2021/06/21 09:05:17;;;;;;;2.10;1.40;;;;;;;14.33;88.76;100754.78;5093886;28;20519;-58
2021/06/21 09:07:46;;;;;;;2.70;1.40;;;;;;;14.32;88.43;100759.22;5113091;28;20552;-57
2021/06/21 09:10:25;;;;;;;2.47;1.40;;;;;;;14.50;89.22;100767.41;5095712;28;20092;-55
2021/06/21 09:13:09;;;;;;;3.05;1.30;;;;;;;14.42;88.22;100763.75;5093493;28;20043;-57
2021/06/21 09:15:39;;;;;;;4.65;1.30;;;;;;;14.44;88.22;100767.09;5096674;28;20056;-55
2021/06/21 09:18:35;;;;;;;2.38;1.52;;;;;;;14.47;88.96;100762.41;5115493;28;20052;-56
2021/06/21 09:21:23;;;;;;;2.13;1.20;;;;;;;14.54;88.29;100766.19;5097007;28;20515;-56
2021/06/21 09:24:27;;;;;;;1.30;1.00;;;;;;;14.52;88.79;100760.22;5115313;28;20073;-54
2021/06/21 09:26:56;;;;;;;2.03;1.30;;;;;;;14.54;88.29;100762.72;5112998;28;20039;-56
2021/06/21 09:29:52;;;;;;;2.30;1.38;;;;;;;14.53;88.07;100766.34;5112219;28;20044;-56
2021/06/21 09:32:47;;;;;;;2.45;1.40;;;;;;;14.61;88.58;100763.88;5095920;28;20098;-57
2021/06/21 09:35:26;;;;;;;1.80;1.25;;;;;;;14.54;88.63;100773.31;5114987;28;20055;-57
2021/06/21 09:37:53;;;;;;;1.75;1.10;;;;;;;14.58;88.83;100773.91;5114933;28;20050;-56
2021/06/21 09:40:36;;;;;;;1.77;1.20;;;;;;;14.50;88.27;100774.53;5110913;28;20047;-57
2021/06/21 09:43:23;;;;;;;2.88;1.23;;;;;;;14.41;86.86;100777.94;5111079;28;20503;-56
2021/06/21 09:46:09;;;;;;;3.17;1.30;;;;;;;14.42;87.71;100782.25;5110900;28;20094;-56
2021/06/21 09:48:42;;;;;;;3.03;1.30;;;;;;;14.48;87.97;100790.53;5110555;28;20067;-59
2021/06/21 09:51:16;;;;;;;2.00;1.30;;;;;;;14.58;87.88;100792.44;5092756;28;20049;-57
2021/06/21 09:54:11;;;;;;;2.30;1.10;;;;;;;14.62;89.14;100794.69;5112155;28;20043;-57
2021/06/21 09:56:50;;;;;;;1.67;1.33;;;;;;;14.69;89.04;100803.81;5100025;28;20078;-57
2021/06/21 09:59:37;;;;;;;2.63;1.45;;;;;;;14.64;86.87;100805.16;5093483;28;20062;-58
2021/06/21 10:02:30;;;;;;;2.28;1.20;;;;;;;14.72;88.52;100823.06;5110361;28;20059;-58
2021/06/21 10:04:57;;;;;;;3.85;1.90;;;;;;;14.76;87.92;100824.50;5088108;28;20105;-58
2021/06/21 10:07:30;;;;;;;1.90;1.15;;;;;;;14.81;87.85;100833.72;5113553;28;20044;-57
2021/06/21 10:10:05;;;;;;;2.45;1.42;;;;;;;14.83;88.29;100841.53;5110879;28;20077;-57
2021/06/21 10:12:32;;;;;;;2.15;1.17;;;;;;;14.81;88.16;100846.97;5110720;28;20035;-56
2021/06/21 10:14:59;;;;;;;2.10;1.23;;;;;;;14.74;86.46;100859.03;5110703;28;20096;-57
2021/06/21 10:17:26;;;;;;;2.38;1.13;;;;;;;14.81;87.12;100865.50;5109272;28;20124;-58
2021/06/21 10:19:54;;;;;;;1.75;1.20;;;;;;;14.83;86.14;100873.31;5109772;28;20062;-58
2021/06/21 10:22:22;;;;;;;3.67;1.02;;;;;;;14.95;86.21;100877.59;5093331;28;20039;-57
2021/06/21 10:24:54;;;;;;;1.92;1.00;;;;;;;15.02;86.83;100883.22;5111056;28;20051;-57
2021/06/21 10:27:23;;;;;;;2.60;1.40;;;;;;;15.07;86.87;100885.50;5092765;28;20047;-58
2021/06/21 10:29:50;;;;;;;2.45;1.20;;;;;;;15.11;86.70;100884.28;5092067;28;20043;-58
2021/06/21 10:32:18;;;;;;;1.65;1.30;;;;;;;15.09;85.73;100880.91;5091805;28;20039;-56
2021/06/21 10:34:49;;;;;;;3.03;1.40;;;;;;;15.20;87.67;100889.63;5092434;28;20054;-56
2021/06/21 10:37:25;;;;;;;2.10;1.33;;;;;;;15.34;87.30;100888.47;5092872;28;20069;-58
2021/06/21 10:40:03;;;;;;;3.38;1.50;;;;;;;15.26;87.10;100882.97;5112562;28;20095;-57
2021/06/21 10:42:37;;;;;;;2.80;1.58;;;;;;;15.23;87.78;100885.03;5110409;28;20056;-56
2021/06/21 10:45:06;;;;;;;3.47;1.67;;;;;;;15.29;87.19;100877.41;5110156;28;20054;-57
2021/06/21 10:47:41;;;;;;;2.00;1.20;;;;;;;15.38;85.81;100865.19;5091877;28;20430;-57
2021/06/21 10:50:16;;;;;;;1.45;1.00;;;;;;;15.21;85.87;100853.38;5113390;28;20052;-55
2021/06/21 10:52:52;;;;;;;1.92;1.10;;;;;;;15.21;88.08;100840.13;5112108;28;20473;-56
2021/06/21 10:55:33;;;;;;;2.95;1.40;;;;;;;15.38;87.82;100826.28;5110642;28;20047;-57
2021/06/21 10:58:19;;;;;;;2.28;1.30;;;;;;;15.14;87.01;100788.66;5109175;28;20043;-56
2021/06/21 11:00:52;;;;;;;2.35;1.45;;;;;;;15.09;87.23;100783.72;5110892;28;20043;-56
2021/06/21 11:03:25;;;;;;;2.22;1.10;;;;;;;15.08;86.94;100781.22;5111889;28;20127;-57
2021/06/21 11:05:55;;;;;;;1.25;1.08;;;;;;;15.03;86.76;100769.22;5110604;28;20104;-56
2021/06/21 11:08:27;;;;;;;2.63;1.45;;;;;;;15.14;87.31;100780.72;5110471;28;20051;-56
2021/06/21 11:10:55;;;;;;;1.90;1.20;;;;;;;15.19;85.74;100800.53;5094977;28;20051;-56
2021/06/21 11:13:35;;;;;;;2.38;1.00;;;;;;;15.31;86.72;100819.84;5093357;28;20458;-56
2021/06/21 11:16:20;;;;;;;2.85;1.20;;;;;;;15.45;86.63;100858.41;5108990;28;20479;-59
2021/06/21 11:18:49;;;;;;;2.20;1.20;;;;;;;15.54;83.65;100881.47;5109308;28;20067;-57
2021/06/21 11:21:18;;;;;;;0.98;0.85;;;;;;;15.46;84.90;100894.53;5109426;28;20051;-57
2021/06/21 11:23:47;;;;;;;1.73;1.20;;;;;;;15.61;85.10;100904.78;5092504;28;20063;-58
2021/06/21 11:26:14;;;;;;;1.90;1.20;;;;;;;15.81;84.94;100916.38;5074435;28;20131;-58
2021/06/21 11:28:49;;;;;;;2.70;1.05;;;;;;;16.14;86.07;100909.94;5092316;28;20549;-56
2021/06/21 11:31:28;;;;;;;2.60;1.10;;;;;;;16.22;84.21;100922.53;5091244;28;20058;-58
2021/06/21 11:34:03;;;;;;;3.38;1.23;;;;;;;16.26;80.42;100937.19;5109197;28;20052;-57
2021/06/21 11:36:40;;;;;;;1.48;1.00;;;;;;;16.29;81.04;100941.41;5087403;28;20039;-56